createdAt,value
2023-01-13T00:00:03.828Z,5.79
2023-01-13T00:00:13.880Z,5.80
2023-01-13T00:00:23.859Z,5.77
2023-01-13T00:00:33.869Z,5.79
2023-01-13T00:00:43.850Z,5.80
2023-01-13T00:00:53.839Z,5.79
2023-01-13T00:01:03.830Z,5.79
2023-01-13T00:01:14.838Z,5.79
2023-01-13T00:01:23.848Z,5.79
2023-01-13T00:01:33.834Z,5.79
2023-01-13T00:01:43.833Z,5.79
2023-01-13T00:01:53.840Z,5.79
2023-01-13T00:02:03.872Z,5.79
2023-01-13T00:02:13.864Z,5.79
2023-01-13T00:02:23.904Z,5.80
2023-01-13T00:02:33.881Z,5.80
2023-01-13T00:02:43.905Z,5.79
2023-01-13T00:02:53.840Z,5.79
2023-01-13T00:03:03.842Z,5.79
2023-01-13T00:03:13.842Z,5.79
2023-01-13T00:03:23.841Z,5.79
2023-01-13T00:03:33.837Z,5.80
2023-01-13T00:03:43.838Z,5.79
2023-01-13T00:03:53.853Z,5.79
2023-01-13T00:04:03.857Z,5.80
2023-01-13T00:04:13.857Z,5.80
2023-01-13T00:04:23.894Z,5.82
2023-01-13T00:04:33.864Z,5.82
2023-01-13T00:04:43.869Z,5.82
2023-01-13T00:04:53.959Z,5.80
2023-01-13T00:05:03.924Z,5.82
2023-01-13T00:05:13.853Z,5.80
2023-01-13T00:05:23.877Z,5.82
2023-01-13T00:05:33.850Z,5.82
2023-01-13T00:05:43.857Z,5.80
2023-01-13T00:05:53.848Z,5.82
2023-01-13T00:06:03.862Z,5.82
2023-01-13T00:06:13.865Z,5.82
2023-01-13T00:06:23.851Z,5.82
2023-01-13T00:06:33.853Z,5.80
2023-01-13T00:06:43.881Z,5.83
2023-01-13T00:06:53.864Z,5.80
2023-01-13T00:07:03.857Z,5.85
2023-01-13T00:07:13.860Z,5.82
2023-01-13T00:07:23.854Z,5.83
2023-01-13T00:07:33.861Z,5.82
2023-01-13T00:07:43.864Z,5.83
2023-01-13T00:07:53.863Z,5.83
2023-01-13T00:08:03.865Z,5.83
2023-01-13T00:08:13.938Z,5.82
2023-01-13T00:08:23.852Z,5.82
2023-01-13T00:08:33.867Z,5.83
2023-01-13T00:08:43.864Z,5.83
2023-01-13T00:08:53.859Z,5.83
2023-01-13T00:09:03.863Z,5.83
2023-01-13T00:09:13.861Z,5.83
2023-01-13T00:09:23.873Z,5.85
2023-01-13T00:09:33.866Z,5.83
2023-01-13T00:09:43.867Z,5.83
2023-01-13T00:09:53.880Z,5.82
2023-01-13T00:10:03.862Z,5.83
2023-01-13T00:10:13.872Z,5.82
2023-01-13T00:10:23.873Z,5.83
2023-01-13T00:10:33.925Z,5.83
2023-01-13T00:10:43.871Z,5.82
2023-01-13T00:10:53.885Z,5.83
2023-01-13T00:11:03.871Z,5.82
2023-01-13T00:11:13.874Z,5.82
2023-01-13T00:11:23.879Z,5.82
2023-01-13T00:11:33.873Z,5.83
2023-01-13T00:11:43.880Z,5.80
2023-01-13T00:11:53.876Z,5.82
2023-01-13T00:12:03.875Z,5.80
2023-01-13T00:12:13.888Z,5.82
2023-01-13T00:12:23.883Z,5.82
2023-01-13T00:12:33.887Z,5.82
2023-01-13T00:12:43.887Z,5.82
2023-01-13T00:12:53.873Z,5.80
2023-01-13T00:13:03.882Z,5.80
2023-01-13T00:13:13.883Z,5.82
2023-01-13T00:13:23.888Z,5.82
2023-01-13T00:13:33.884Z,5.82
2023-01-13T00:13:43.909Z,5.82
2023-01-13T00:13:53.877Z,5.82
2023-01-13T00:14:03.889Z,5.82
2023-01-13T00:14:13.895Z,5.83
2023-01-13T00:14:23.883Z,5.83
2023-01-13T00:14:33.889Z,5.82
2023-01-13T00:14:43.888Z,5.83
2023-01-13T00:14:53.892Z,5.82
2023-01-13T00:15:03.888Z,5.83
2023-01-13T00:15:13.913Z,5.83
2023-01-13T00:15:23.892Z,5.83
2023-01-13T00:15:33.910Z,5.82
2023-01-13T00:15:43.928Z,5.83
2023-01-13T00:15:53.924Z,5.83
2023-01-13T00:16:03.906Z,5.82
2023-01-13T00:16:13.944Z,5.82
2023-01-13T00:16:23.943Z,5.82
2023-01-13T00:16:33.890Z,5.83
2023-01-13T00:16:43.899Z,5.83
2023-01-13T00:16:53.894Z,5.82
2023-01-13T00:17:03.893Z,5.83
2023-01-13T00:17:13.912Z,5.83
2023-01-13T00:17:23.896Z,5.83
2023-01-13T00:17:33.913Z,5.82
2023-01-13T00:17:43.900Z,5.82
2023-01-13T00:17:53.896Z,5.82
2023-01-13T00:18:03.904Z,5.82
2023-01-13T00:18:13.911Z,5.82
2023-01-13T00:18:23.899Z,5.82
2023-01-13T00:18:33.930Z,5.82
2023-01-13T00:18:43.901Z,5.83
2023-01-13T00:18:53.918Z,5.83
2023-01-13T00:19:03.901Z,5.82
2023-01-13T00:19:13.901Z,5.82
2023-01-13T00:19:23.906Z,5.83
2023-01-13T00:19:33.955Z,5.82
2023-01-13T00:19:43.918Z,5.82
2023-01-13T00:19:53.930Z,5.83
2023-01-13T00:20:03.902Z,5.83
2023-01-13T00:20:13.905Z,5.83
2023-01-13T00:20:23.924Z,5.82
2023-01-13T00:20:34.831Z,5.83
2023-01-13T00:20:43.925Z,5.82
2023-01-13T00:20:54.817Z,5.83
2023-01-13T00:21:03.921Z,5.82
2023-01-13T00:21:13.941Z,5.83
2023-01-13T00:21:23.930Z,5.83
2023-01-13T00:21:33.943Z,5.83
2023-01-13T00:21:43.906Z,5.82
2023-01-13T00:21:53.913Z,5.83
2023-01-13T00:22:03.907Z,5.83
2023-01-13T00:22:13.937Z,5.85
2023-01-13T00:22:23.911Z,5.83
2023-01-13T00:22:33.934Z,5.82
2023-01-13T00:22:43.925Z,5.83
2023-01-13T00:22:53.985Z,5.85
2023-01-13T00:23:03.911Z,5.85
2023-01-13T00:23:13.935Z,5.82
2023-01-13T00:23:23.922Z,5.83
2023-01-13T00:23:33.967Z,5.83
2023-01-13T00:23:43.938Z,5.82
2023-01-13T00:23:54.826Z,5.83
2023-01-13T00:24:03.916Z,5.83
2023-01-13T00:24:15.844Z,5.83
2023-01-13T00:24:23.930Z,5.85
2023-01-13T00:24:33.942Z,5.83
2023-01-13T00:24:43.955Z,5.83
2023-01-13T00:24:53.923Z,5.83
2023-01-13T00:25:04.832Z,5.83
2023-01-13T00:25:15.859Z,5.82
2023-01-13T00:25:23.930Z,5.83
2023-01-13T00:25:33.973Z,5.83
2023-01-13T00:25:43.923Z,5.83
2023-01-13T00:25:54.824Z,5.83
2023-01-13T00:26:03.917Z,5.83
2023-01-13T00:26:13.939Z,5.82
2023-01-13T00:26:23.948Z,5.85
2023-01-13T00:26:33.932Z,5.83
2023-01-13T00:26:43.935Z,5.82
2023-01-13T00:26:53.941Z,5.82
2023-01-13T00:27:03.928Z,5.83
2023-01-13T00:27:13.930Z,5.83
2023-01-13T00:27:23.945Z,5.83
2023-01-13T00:27:33.984Z,5.82
2023-01-13T00:27:55.848Z,5.82
2023-01-13T00:27:56.200Z,5.82
2023-01-13T00:28:06.213Z,5.83
2023-01-13T00:28:16.191Z,5.83
2023-01-13T00:28:26.201Z,5.83
2023-01-13T00:28:36.200Z,5.83
2023-01-13T00:28:46.198Z,5.83
2023-01-13T00:28:56.201Z,5.83
2023-01-13T00:29:06.197Z,5.83
2023-01-13T00:29:16.205Z,5.83
2023-01-13T00:29:26.212Z,5.83
2023-01-13T00:29:36.201Z,5.82
2023-01-13T00:29:46.200Z,5.83
2023-01-13T00:29:56.199Z,5.83
2023-01-13T00:30:06.201Z,5.83
2023-01-13T00:30:16.208Z,5.85
2023-01-13T00:30:26.205Z,5.83
2023-01-13T00:30:36.199Z,5.85
2023-01-13T00:30:46.201Z,5.85
2023-01-13T00:30:56.411Z,5.83
2023-01-13T00:31:06.318Z,5.83
2023-01-13T00:31:16.343Z,5.85
2023-01-13T00:31:26.260Z,5.86
2023-01-13T00:31:36.283Z,5.85
2023-01-13T00:31:46.206Z,5.85
2023-01-13T00:31:56.228Z,5.86
2023-01-13T00:32:06.209Z,5.86
2023-01-13T00:32:16.207Z,5.85
2023-01-13T00:32:26.223Z,5.85
2023-01-13T00:32:36.220Z,5.87
2023-01-13T00:32:46.200Z,5.86
2023-01-13T00:32:56.208Z,5.86
2023-01-13T00:33:06.206Z,5.86
2023-01-13T00:33:16.212Z,5.86
2023-01-13T00:33:26.223Z,5.86
2023-01-13T00:33:36.211Z,5.86
2023-01-13T00:33:46.218Z,5.85
2023-01-13T00:33:56.228Z,5.85
2023-01-13T00:34:06.217Z,5.86
2023-01-13T00:34:16.227Z,5.83
2023-01-13T00:34:26.224Z,5.85
2023-01-13T00:34:36.213Z,5.85
2023-01-13T00:34:46.220Z,5.86
2023-01-13T00:34:56.226Z,5.86
2023-01-13T00:35:06.215Z,5.86
2023-01-13T00:35:16.219Z,5.86
2023-01-13T00:35:26.213Z,5.85
2023-01-13T00:35:36.227Z,5.85
2023-01-13T00:35:46.230Z,5.85
2023-01-13T00:35:56.217Z,5.86
2023-01-13T00:36:06.257Z,5.85
2023-01-13T00:36:16.228Z,5.86
2023-01-13T00:36:26.235Z,5.85
2023-01-13T00:36:36.238Z,5.82
2023-01-13T00:36:46.243Z,5.85
2023-01-13T00:36:56.233Z,5.85
2023-01-13T00:37:06.237Z,5.85
2023-01-13T00:37:16.232Z,5.86
2023-01-13T00:37:26.222Z,5.86
2023-01-13T00:37:36.844Z,5.85
2023-01-13T00:37:46.236Z,5.86
2023-01-13T00:37:56.237Z,5.85
2023-01-13T00:38:06.227Z,5.86
2023-01-13T00:38:16.233Z,5.86
2023-01-13T00:38:26.234Z,5.85
2023-01-13T00:38:36.328Z,5.86
2023-01-13T00:38:46.239Z,5.86
2023-01-13T00:38:56.236Z,5.86
2023-01-13T00:39:06.235Z,5.86
2023-01-13T00:39:16.244Z,5.85
2023-01-13T00:39:26.241Z,5.86
2023-01-13T00:39:36.235Z,5.86
2023-01-13T00:39:46.256Z,5.87
2023-01-13T00:39:56.245Z,5.85
2023-01-13T00:40:06.246Z,5.87
2023-01-13T00:40:16.238Z,5.86
2023-01-13T00:40:26.246Z,5.87
2023-01-13T00:40:36.256Z,5.86
2023-01-13T00:40:46.246Z,5.87
2023-01-13T00:40:56.251Z,5.86
2023-01-13T00:41:06.242Z,5.87
2023-01-13T00:41:16.259Z,5.86
2023-01-13T00:41:26.252Z,5.87
2023-01-13T00:41:36.247Z,5.87
2023-01-13T00:41:46.254Z,5.86
2023-01-13T00:41:56.259Z,5.86
2023-01-13T00:42:06.248Z,5.87
2023-01-13T00:42:16.261Z,5.87
2023-01-13T00:42:26.254Z,5.87
2023-01-13T00:42:36.256Z,5.87
2023-01-13T00:42:46.266Z,5.86
2023-01-13T00:42:56.254Z,5.87
2023-01-13T00:43:06.255Z,5.89
2023-01-13T00:43:16.318Z,5.87
2023-01-13T00:43:26.262Z,5.89
2023-01-13T00:43:36.262Z,5.86
2023-01-13T00:43:46.266Z,5.87
2023-01-13T00:43:56.269Z,5.87
2023-01-13T00:44:06.267Z,5.89
2023-01-13T00:44:16.269Z,5.87
2023-01-13T00:44:26.279Z,5.87
2023-01-13T00:44:36.267Z,5.87
2023-01-13T00:44:46.272Z,5.89
2023-01-13T00:44:56.285Z,5.89
2023-01-13T00:45:06.265Z,5.89
2023-01-13T00:45:16.275Z,5.90
2023-01-13T00:45:26.273Z,5.89
2023-01-13T00:45:36.267Z,5.89
2023-01-13T00:45:46.279Z,5.89
2023-01-13T00:45:56.273Z,5.87
2023-01-13T00:46:06.409Z,5.87
2023-01-13T00:46:16.300Z,5.89
2023-01-13T00:46:26.296Z,5.87
2023-01-13T00:46:36.363Z,5.89
2023-01-13T00:46:46.317Z,5.89
2023-01-13T00:46:56.270Z,5.87
2023-01-13T00:47:06.271Z,5.89
2023-01-13T00:47:16.274Z,5.87
2023-01-13T00:47:26.290Z,5.89
2023-01-13T00:47:36.289Z,5.87
2023-01-13T00:47:46.288Z,5.87
2023-01-13T00:47:56.278Z,5.87
2023-01-13T00:48:06.293Z,5.87
2023-01-13T00:48:16.332Z,5.89
2023-01-13T00:48:26.288Z,5.89
2023-01-13T00:48:36.282Z,5.87
2023-01-13T00:48:46.279Z,5.89
2023-01-13T00:48:56.286Z,5.89
2023-01-13T00:49:06.290Z,5.89
2023-01-13T00:49:16.289Z,5.89
2023-01-13T00:49:26.288Z,5.87
2023-01-13T00:49:36.293Z,5.87
2023-01-13T00:49:46.303Z,5.87
2023-01-13T00:49:56.304Z,5.86
2023-01-13T00:50:06.302Z,5.86
2023-01-13T00:50:16.287Z,5.87
2023-01-13T00:50:26.286Z,5.89
2023-01-13T00:50:36.296Z,5.87
2023-01-13T00:50:46.288Z,5.87
2023-01-13T00:50:56.322Z,5.87
2023-01-13T00:51:06.294Z,5.87
2023-01-13T00:51:16.290Z,5.87
2023-01-13T00:51:26.302Z,5.87
2023-01-13T00:51:36.292Z,5.87
2023-01-13T00:51:46.297Z,5.89
2023-01-13T00:51:56.305Z,5.87
2023-01-13T00:52:06.293Z,5.89
2023-01-13T00:52:16.302Z,5.89
2023-01-13T00:52:26.299Z,5.89
2023-01-13T00:52:36.316Z,5.87
2023-01-13T00:52:46.310Z,5.89
2023-01-13T00:52:56.315Z,5.89
2023-01-13T00:53:06.305Z,5.87
2023-01-13T00:53:16.335Z,5.89
2023-01-13T00:53:26.298Z,5.87
2023-01-13T00:53:36.311Z,5.87
2023-01-13T00:53:46.307Z,5.89
2023-01-13T00:53:56.335Z,5.89
2023-01-13T00:54:06.308Z,5.89
2023-01-13T00:54:16.305Z,5.89
2023-01-13T00:54:26.342Z,5.89
2023-01-13T00:54:36.314Z,5.87
2023-01-13T00:54:46.311Z,5.89
2023-01-13T00:54:56.302Z,5.87
2023-01-13T00:55:06.323Z,5.89
2023-01-13T00:55:16.319Z,5.89
2023-01-13T00:55:26.327Z,5.89
2023-01-13T00:55:36.313Z,5.89
2023-01-13T00:55:46.318Z,5.89
2023-01-13T00:55:56.331Z,5.87
2023-01-13T00:56:06.325Z,5.89
2023-01-13T00:56:18.138Z,5.89
2023-01-13T00:56:39.736Z,5.89
2023-01-13T00:56:40.570Z,5.89
2023-01-13T00:56:46.328Z,5.89
2023-01-13T00:56:56.322Z,5.89
2023-01-13T00:57:06.322Z,5.90
2023-01-13T00:57:16.349Z,5.89
2023-01-13T00:57:26.329Z,5.89
2023-01-13T00:57:36.335Z,5.90
2023-01-13T00:57:46.353Z,5.90
2023-01-13T00:57:56.340Z,5.89
2023-01-13T00:58:06.324Z,5.90
2023-01-13T00:58:16.359Z,5.89
2023-01-13T00:58:26.328Z,5.89
2023-01-13T00:58:36.339Z,5.92
2023-01-13T00:58:46.336Z,5.89
2023-01-13T00:58:56.334Z,5.89
2023-01-13T00:59:06.353Z,5.89
2023-01-13T00:59:16.347Z,5.89
2023-01-13T00:59:26.340Z,5.89
2023-01-13T00:59:36.336Z,5.89
2023-01-13T00:59:48.003Z,5.89
2023-01-13T00:59:56.344Z,5.87
2023-01-13T01:00:06.350Z,5.90
2023-01-13T01:00:16.340Z,5.92
2023-01-13T01:00:26.338Z,5.90
2023-01-13T01:00:36.384Z,5.87
2023-01-13T01:00:46.373Z,5.90
2023-01-13T01:00:56.509Z,5.89
2023-01-13T01:01:06.509Z,5.89
2023-01-13T01:01:16.528Z,5.89
2023-01-13T01:01:26.575Z,5.89
2023-01-13T01:01:36.581Z,5.90
2023-01-13T01:01:46.510Z,5.89
2023-01-13T01:01:56.393Z,5.90
2023-01-13T01:02:06.503Z,5.89
2023-01-13T01:02:16.497Z,5.90
2023-01-13T01:02:26.405Z,5.87
2023-01-13T01:02:36.430Z,5.89
2023-01-13T01:02:46.451Z,5.90
2023-01-13T01:02:56.351Z,5.89
2023-01-13T01:03:06.355Z,5.89
2023-01-13T01:03:16.355Z,5.89
2023-01-13T01:03:26.362Z,5.89
2023-01-13T01:03:36.395Z,5.89
2023-01-13T01:03:46.351Z,5.89
2023-01-13T01:03:56.352Z,5.89
2023-01-13T01:04:06.371Z,5.89
2023-01-13T01:04:16.358Z,5.90
2023-01-13T01:04:26.365Z,5.90
2023-01-13T01:04:36.373Z,5.90
2023-01-13T01:04:46.354Z,5.89
2023-01-13T01:04:56.352Z,5.89
2023-01-13T01:05:06.370Z,5.90
2023-01-13T01:05:16.377Z,5.89
2023-01-13T01:05:26.360Z,5.90
2023-01-13T01:05:36.364Z,5.89
2023-01-13T01:05:46.366Z,5.89
2023-01-13T01:05:56.368Z,5.89
2023-01-13T01:06:06.363Z,5.89
2023-01-13T01:06:16.374Z,5.89
2023-01-13T01:06:26.382Z,5.89
2023-01-13T01:06:36.359Z,5.89
2023-01-13T01:06:46.369Z,5.90
2023-01-13T01:06:56.368Z,5.89
2023-01-13T01:07:06.376Z,5.90
2023-01-13T01:07:16.366Z,5.89
2023-01-13T01:07:26.373Z,5.89
2023-01-13T01:07:36.370Z,5.90
2023-01-13T01:07:46.373Z,5.89
2023-01-13T01:07:56.379Z,5.90
2023-01-13T01:08:06.371Z,5.90
2023-01-13T01:08:16.374Z,5.92
2023-01-13T01:08:26.374Z,5.90
2023-01-13T01:08:36.374Z,5.87
2023-01-13T01:08:46.371Z,5.90
2023-01-13T01:08:56.379Z,5.89
2023-01-13T01:09:06.401Z,5.89
2023-01-13T01:09:16.371Z,5.89
2023-01-13T01:09:26.392Z,5.90
2023-01-13T01:09:36.375Z,5.90
2023-01-13T01:09:46.382Z,5.90
2023-01-13T01:09:56.375Z,5.89
2023-01-13T01:10:06.396Z,5.90
2023-01-13T01:10:16.396Z,5.89
2023-01-13T01:10:26.385Z,5.90
2023-01-13T01:10:36.386Z,5.89
2023-01-13T01:10:46.375Z,5.90
2023-01-13T01:10:56.380Z,5.89
2023-01-13T01:11:06.412Z,5.90
2023-01-13T01:11:16.386Z,5.90
2023-01-13T01:11:26.391Z,5.89
2023-01-13T01:11:36.411Z,5.89
2023-01-13T01:11:46.385Z,5.90
2023-01-13T01:11:56.392Z,5.89
2023-01-13T01:12:06.419Z,5.87
2023-01-13T01:12:16.389Z,5.89
2023-01-13T01:12:26.393Z,5.89
2023-01-13T01:12:36.390Z,5.90
2023-01-13T01:12:46.382Z,5.90
2023-01-13T01:12:56.390Z,5.90
2023-01-13T01:13:06.401Z,5.90
2023-01-13T01:13:16.399Z,5.90
2023-01-13T01:13:26.395Z,5.90
2023-01-13T01:13:36.441Z,5.90
2023-01-13T01:13:46.402Z,5.92
2023-01-13T01:13:56.407Z,5.89
2023-01-13T01:14:06.402Z,5.90
2023-01-13T01:14:16.394Z,5.89
2023-01-13T01:14:26.412Z,5.90
2023-01-13T01:14:36.402Z,5.90
2023-01-13T01:14:46.402Z,5.89
2023-01-13T01:14:56.409Z,5.89
2023-01-13T01:15:06.437Z,5.89
2023-01-13T01:15:16.396Z,5.90
2023-01-13T01:15:26.410Z,5.90
2023-01-13T01:15:36.417Z,5.92
2023-01-13T01:15:46.419Z,5.90
2023-01-13T01:15:56.490Z,5.90
2023-01-13T01:16:06.427Z,5.89
2023-01-13T01:16:16.481Z,5.90
2023-01-13T01:16:26.521Z,5.90
2023-01-13T01:16:36.420Z,5.90
2023-01-13T01:16:46.410Z,5.90
2023-01-13T01:16:56.415Z,5.90
2023-01-13T01:17:06.409Z,5.89
2023-01-13T01:17:16.403Z,5.90
2023-01-13T01:17:26.413Z,5.92
2023-01-13T01:17:36.438Z,5.90
2023-01-13T01:17:46.405Z,5.90
2023-01-13T01:17:56.416Z,5.90
2023-01-13T01:18:06.407Z,5.89
2023-01-13T01:18:16.404Z,5.92
2023-01-13T01:18:26.417Z,5.92
2023-01-13T01:18:36.415Z,5.92
2023-01-13T01:18:46.415Z,5.92
2023-01-13T01:18:56.422Z,5.90
2023-01-13T01:19:06.415Z,5.90
2023-01-13T01:19:16.721Z,5.89
2023-01-13T01:19:26.430Z,5.90
2023-01-13T01:19:36.429Z,5.90
2023-01-13T01:19:46.421Z,5.90
2023-01-13T01:19:56.421Z,5.92
2023-01-13T01:20:06.471Z,5.90
2023-01-13T01:20:16.428Z,5.90
2023-01-13T01:20:26.435Z,5.90
2023-01-13T01:20:36.428Z,5.92
2023-01-13T01:20:46.432Z,5.90
2023-01-13T01:20:56.440Z,5.92
2023-01-13T01:21:06.441Z,5.92
2023-01-13T01:21:16.429Z,5.92
2023-01-13T01:21:26.462Z,5.92
2023-01-13T01:21:36.427Z,5.92
2023-01-13T01:21:46.439Z,5.94
2023-01-13T01:21:56.432Z,5.92
2023-01-13T01:22:06.442Z,5.92
2023-01-13T01:22:16.432Z,5.90
2023-01-13T01:22:26.491Z,5.90
2023-01-13T01:22:36.478Z,5.90
2023-01-13T01:22:46.441Z,5.90
2023-01-13T01:22:56.461Z,5.90
2023-01-13T01:23:06.447Z,5.89
2023-01-13T01:23:16.442Z,5.94
2023-01-13T01:23:26.451Z,5.90
2023-01-13T01:23:36.452Z,5.92
2023-01-13T01:23:46.458Z,5.94
2023-01-13T01:23:56.448Z,5.90
2023-01-13T01:24:06.447Z,5.90
2023-01-13T01:24:16.460Z,5.90
2023-01-13T01:24:26.476Z,5.90
2023-01-13T01:24:36.452Z,5.92
2023-01-13T01:24:46.470Z,5.92
2023-01-13T01:24:56.441Z,5.92
2023-01-13T01:25:06.463Z,5.90
2023-01-13T01:25:16.459Z,5.90
2023-01-13T01:25:26.454Z,5.90
2023-01-13T01:25:36.450Z,5.90
2023-01-13T01:25:46.456Z,5.92
2023-01-13T01:25:56.453Z,5.92
2023-01-13T01:26:06.480Z,5.90
2023-01-13T01:26:16.467Z,5.90
2023-01-13T01:26:26.489Z,5.90
2023-01-13T01:26:36.461Z,5.90
2023-01-13T01:26:46.462Z,5.92
2023-01-13T01:26:56.458Z,5.92
2023-01-13T01:27:06.464Z,5.90
2023-01-13T01:27:16.459Z,5.92
2023-01-13T01:27:26.458Z,5.92
2023-01-13T01:27:36.463Z,5.92
2023-01-13T01:27:46.471Z,5.90
2023-01-13T01:27:56.457Z,5.92
2023-01-13T01:28:06.479Z,5.92
2023-01-13T01:28:16.489Z,5.90
2023-01-13T01:28:26.475Z,5.94
2023-01-13T01:28:36.467Z,5.94
2023-01-13T01:28:46.470Z,5.90
2023-01-13T01:28:56.463Z,5.92
2023-01-13T01:29:06.460Z,5.90
2023-01-13T01:29:16.473Z,5.92
2023-01-13T01:29:26.484Z,5.92
2023-01-13T01:29:36.461Z,5.92
2023-01-13T01:29:46.463Z,5.90
2023-01-13T01:29:56.467Z,5.90
2023-01-13T01:30:06.474Z,5.92
2023-01-13T01:30:16.493Z,5.92
2023-01-13T01:30:26.469Z,5.90
2023-01-13T01:30:36.466Z,5.94
2023-01-13T01:30:46.472Z,5.90
2023-01-13T01:30:56.468Z,5.92
2023-01-13T01:31:06.530Z,5.92
2023-01-13T01:31:16.532Z,5.94
2023-01-13T01:31:26.480Z,5.92
2023-01-13T01:31:36.482Z,5.92
2023-01-13T01:31:46.708Z,5.92
2023-01-13T01:31:56.475Z,5.90
2023-01-13T01:32:06.492Z,5.92
2023-01-13T01:32:16.477Z,5.92
2023-01-13T01:32:26.492Z,5.92
2023-01-13T01:32:36.482Z,5.90
2023-01-13T01:32:46.519Z,5.90
2023-01-13T01:32:56.509Z,5.92
2023-01-13T01:33:06.483Z,5.94
2023-01-13T01:33:16.484Z,5.94
2023-01-13T01:33:26.490Z,5.90
2023-01-13T01:33:36.475Z,5.90
2023-01-13T01:33:46.507Z,5.92
2023-01-13T01:33:56.484Z,5.90
2023-01-13T01:34:06.487Z,5.89
2023-01-13T01:34:16.485Z,5.92
2023-01-13T01:34:26.487Z,5.92
2023-01-13T01:34:36.494Z,5.90
2023-01-13T01:34:46.487Z,5.94
2023-01-13T01:34:56.484Z,5.94
2023-01-13T01:35:06.485Z,5.92
2023-01-13T01:35:16.490Z,5.92
2023-01-13T01:35:26.488Z,5.92
2023-01-13T01:35:36.489Z,5.92
2023-01-13T01:35:46.496Z,5.92
2023-01-13T01:35:56.498Z,5.90
2023-01-13T01:36:06.497Z,5.92
2023-01-13T01:36:16.512Z,5.94
2023-01-13T01:36:26.517Z,5.94
2023-01-13T01:36:36.489Z,5.92
2023-01-13T01:36:46.498Z,5.92
2023-01-13T01:36:56.501Z,5.92
2023-01-13T01:37:06.519Z,5.92
2023-01-13T01:37:16.505Z,5.92
2023-01-13T01:37:26.500Z,5.94
2023-01-13T01:37:36.501Z,5.92
2023-01-13T01:37:46.507Z,5.92
2023-01-13T01:37:56.520Z,5.92
2023-01-13T01:38:06.530Z,5.95
2023-01-13T01:38:16.514Z,5.92
2023-01-13T01:38:26.551Z,5.92
2023-01-13T01:38:36.506Z,5.90
2023-01-13T01:38:46.511Z,5.94
2023-01-13T01:38:56.516Z,5.92
2023-01-13T01:39:06.515Z,5.92
2023-01-13T01:39:16.523Z,5.92
2023-01-13T01:39:26.530Z,5.90
2023-01-13T01:39:36.525Z,5.92
2023-01-13T01:39:46.513Z,5.90
2023-01-13T01:39:56.511Z,5.92
2023-01-13T01:40:06.511Z,5.92
2023-01-13T01:40:16.513Z,5.92
2023-01-13T01:40:26.516Z,5.92
2023-01-13T01:40:36.541Z,5.95
2023-01-13T01:40:46.527Z,5.92
2023-01-13T01:40:56.512Z,5.92
2023-01-13T01:41:06.516Z,5.90
2023-01-13T01:41:16.513Z,5.92
2023-01-13T01:41:26.522Z,5.94
2023-01-13T01:41:36.523Z,5.92
2023-01-13T01:41:46.515Z,5.94
2023-01-13T01:41:56.521Z,5.92
2023-01-13T01:42:06.527Z,5.94
2023-01-13T01:42:16.521Z,5.92
2023-01-13T01:42:26.535Z,5.90
2023-01-13T01:42:36.524Z,5.92
2023-01-13T01:42:46.525Z,5.94
2023-01-13T01:42:56.527Z,5.92
2023-01-13T01:43:06.520Z,5.94
2023-01-13T01:43:16.551Z,5.92
2023-01-13T01:43:26.563Z,5.94
2023-01-13T01:43:36.520Z,5.92
2023-01-13T01:43:46.542Z,5.92
2023-01-13T01:43:56.524Z,5.95
2023-01-13T01:44:06.528Z,5.92
2023-01-13T01:44:16.533Z,5.92
2023-01-13T01:44:26.533Z,5.92
2023-01-13T01:44:36.525Z,5.94
2023-01-13T01:44:46.535Z,5.94
2023-01-13T01:44:56.532Z,5.94
2023-01-13T01:45:06.528Z,5.92
2023-01-13T01:45:16.536Z,5.94
2023-01-13T01:45:26.533Z,5.94
2023-01-13T01:45:36.536Z,5.92
2023-01-13T01:45:46.538Z,5.94
2023-01-13T01:45:56.535Z,5.94
2023-01-13T01:46:06.597Z,5.94
2023-01-13T01:46:16.592Z,5.94
2023-01-13T01:46:26.567Z,5.94
2023-01-13T01:46:36.581Z,5.94
2023-01-13T01:46:46.645Z,5.95
2023-01-13T01:46:56.608Z,5.92
2023-01-13T01:47:06.634Z,5.95
2023-01-13T01:47:16.550Z,5.94
2023-01-13T01:47:26.539Z,5.94
2023-01-13T01:47:36.539Z,5.94
2023-01-13T01:47:46.540Z,5.97
2023-01-13T01:47:56.554Z,5.95
2023-01-13T01:48:06.551Z,5.95
2023-01-13T01:48:16.544Z,5.94
2023-01-13T01:48:26.547Z,5.95
2023-01-13T01:48:36.547Z,5.97
2023-01-13T01:48:46.547Z,5.94
2023-01-13T01:48:56.549Z,5.94
2023-01-13T01:49:06.549Z,5.95
2023-01-13T01:49:17.369Z,5.97
2023-01-13T01:49:26.563Z,5.95
2023-01-13T01:49:36.550Z,5.95
2023-01-13T01:49:46.550Z,5.97
2023-01-13T01:49:56.553Z,5.95
2023-01-13T01:50:06.560Z,5.94
2023-01-13T01:50:16.557Z,5.95
2023-01-13T01:50:26.567Z,5.94
2023-01-13T01:50:36.563Z,5.95
2023-01-13T01:50:46.553Z,5.97
2023-01-13T01:50:56.576Z,5.95
2023-01-13T01:51:06.569Z,5.97
2023-01-13T01:51:16.573Z,5.95
2023-01-13T01:51:26.562Z,5.94
2023-01-13T01:51:36.581Z,5.95
2023-01-13T01:51:46.584Z,5.95
2023-01-13T01:51:56.573Z,5.95
2023-01-13T01:52:06.572Z,5.95
2023-01-13T01:52:16.567Z,5.95
2023-01-13T01:52:26.612Z,5.97
2023-01-13T01:52:36.579Z,5.97
2023-01-13T01:52:46.564Z,5.97
2023-01-13T01:52:56.564Z,5.95
2023-01-13T01:53:06.569Z,5.95
2023-01-13T01:53:16.570Z,5.97
2023-01-13T01:53:26.569Z,5.97
2023-01-13T01:53:36.569Z,5.97
2023-01-13T01:53:46.581Z,5.97
2023-01-13T01:53:56.603Z,5.97
2023-01-13T01:54:06.590Z,5.95
2023-01-13T01:54:16.569Z,5.97
2023-01-13T01:54:26.581Z,5.97
2023-01-13T01:54:36.579Z,5.98
2023-01-13T01:54:46.573Z,5.97
2023-01-13T01:54:56.585Z,5.98
2023-01-13T01:55:06.598Z,5.98
2023-01-13T01:55:16.596Z,5.97
2023-01-13T01:55:26.581Z,5.97
2023-01-13T01:55:36.583Z,5.97
2023-01-13T01:55:46.576Z,5.97
2023-01-13T01:55:56.580Z,5.98
2023-01-13T01:56:06.581Z,5.97
2023-01-13T01:56:16.582Z,5.97
2023-01-13T01:56:26.586Z,5.97
2023-01-13T01:56:36.592Z,5.97
2023-01-13T01:56:46.581Z,5.97
2023-01-13T01:56:56.602Z,5.97
2023-01-13T01:57:06.591Z,5.97
2023-01-13T01:57:16.592Z,5.97
2023-01-13T01:57:26.602Z,5.97
2023-01-13T01:57:36.584Z,5.97
2023-01-13T01:57:46.588Z,5.97
2023-01-13T01:57:56.592Z,5.97
2023-01-13T01:58:06.601Z,5.97
2023-01-13T01:58:16.591Z,5.98
2023-01-13T01:58:26.586Z,5.98
2023-01-13T01:58:36.598Z,5.97
2023-01-13T01:58:46.594Z,5.98
2023-01-13T01:58:56.591Z,5.97
2023-01-13T01:59:06.619Z,5.97
2023-01-13T01:59:16.606Z,5.98
2023-01-13T01:59:26.601Z,5.98
2023-01-13T01:59:36.592Z,5.97
2023-01-13T01:59:46.597Z,5.97
2023-01-13T01:59:56.602Z,5.98
2023-01-13T02:00:06.603Z,5.98
2023-01-13T02:00:16.619Z,5.98
2023-01-13T02:00:26.595Z,5.97
2023-01-13T02:00:36.629Z,5.98
2023-01-13T02:00:46.630Z,5.98
2023-01-13T02:00:56.674Z,5.98
2023-01-13T02:01:06.812Z,5.98
2023-01-13T02:01:16.726Z,5.98
2023-01-13T02:01:26.679Z,5.98
2023-01-13T02:01:36.823Z,5.97
2023-01-13T02:01:46.807Z,5.98
2023-01-13T02:01:56.714Z,5.97
2023-01-13T02:02:06.714Z,5.98
2023-01-13T02:02:16.669Z,5.98
2023-01-13T02:02:26.651Z,5.97
2023-01-13T02:02:36.639Z,5.97
2023-01-13T02:02:46.663Z,5.97
2023-01-13T02:02:56.615Z,5.98
2023-01-13T02:03:06.610Z,5.98
2023-01-13T02:03:16.658Z,5.97
2023-01-13T02:03:26.613Z,5.98
2023-01-13T02:03:36.616Z,5.98
2023-01-13T02:03:46.628Z,5.98
2023-01-13T02:03:56.615Z,5.98
2023-01-13T02:04:06.625Z,5.98
2023-01-13T02:04:16.620Z,5.98
2023-01-13T02:04:26.656Z,5.98
2023-01-13T02:04:36.611Z,5.98
2023-01-13T02:04:46.619Z,5.98
2023-01-13T02:04:56.623Z,5.98
2023-01-13T02:05:06.640Z,6.00
2023-01-13T02:05:16.618Z,6.00
2023-01-13T02:05:26.624Z,6.00
2023-01-13T02:05:36.640Z,6.00
2023-01-13T02:05:46.636Z,6.00
2023-01-13T02:05:56.627Z,6.00
2023-01-13T02:06:06.627Z,6.00
2023-01-13T02:06:16.627Z,6.01
2023-01-13T02:06:26.627Z,6.00
2023-01-13T02:06:36.627Z,6.00
2023-01-13T02:06:46.628Z,6.00
2023-01-13T02:06:56.639Z,6.01
2023-01-13T02:07:06.628Z,6.01
2023-01-13T02:07:16.634Z,6.00
2023-01-13T02:07:26.633Z,5.98
2023-01-13T02:07:36.636Z,5.98
2023-01-13T02:07:46.637Z,6.00
2023-01-13T02:07:56.643Z,6.00
2023-01-13T02:08:06.647Z,5.98
2023-01-13T02:08:17.373Z,6.01
2023-01-13T02:08:26.637Z,6.00
2023-01-13T02:08:36.636Z,6.01
2023-01-13T02:08:46.641Z,6.01
2023-01-13T02:08:56.638Z,6.00
2023-01-13T02:09:06.663Z,6.00
2023-01-13T02:09:16.655Z,6.00
2023-01-13T02:09:26.647Z,6.01
2023-01-13T02:09:36.698Z,6.01
2023-01-13T02:09:46.652Z,6.00
2023-01-13T02:09:56.661Z,6.01
2023-01-13T02:10:06.653Z,6.00
2023-01-13T02:10:16.660Z,6.01
2023-01-13T02:10:26.688Z,6.01
2023-01-13T02:10:36.645Z,6.00
2023-01-13T02:10:46.647Z,6.00
2023-01-13T02:10:56.658Z,5.98
2023-01-13T02:11:06.657Z,6.00
2023-01-13T02:11:16.645Z,6.01
2023-01-13T02:11:26.655Z,6.00
2023-01-13T02:11:36.657Z,6.00
2023-01-13T02:11:46.652Z,6.01
2023-01-13T02:11:56.672Z,6.01
2023-01-13T02:12:06.655Z,6.00
2023-01-13T02:12:16.658Z,6.00
2023-01-13T02:12:26.661Z,6.01
2023-01-13T02:12:36.649Z,6.01
2023-01-13T02:12:46.675Z,6.00
2023-01-13T02:12:56.660Z,5.98
2023-01-13T02:13:06.657Z,6.00